Time;durP1;ratioP1;P1;durP2;ratioP2;P2;SDS_P1;SDS_P2;PMS_P1;PMS_P2;Temp;Humidity;BMP_temperature;BMP_pressure;BME280_temperature;BME280_humidity;BME280_pressure;Samples;Min_cycle;Max_cycle;Signal;HPM_P1;HPM_P2
2022/07/22 00:01:38;;;;;;;4.50;2.90;;;;;;;20.73;56.21;98437.36;105870;1277;138113;-76
2022/07/22 00:04:07;;;;;;;4.10;2.70;;;;;;;20.69;56.47;98434.95;106091;1277;22709;-75
2022/07/22 00:06:34;;;;;;;4.40;2.80;;;;;;;20.65;56.47;98431.48;106200;1277;24221;-75
2022/07/22 00:09:00;;;;;;;3.40;2.60;;;;;;;20.62;56.33;98428.80;106270;1281;137285;-77
2022/07/22 00:11:30;;;;;;;7.30;2.80;;;;;;;20.59;56.45;98428.55;106383;1276;22599;-76
2022/07/22 00:13:57;;;;;;;6.50;2.90;;;;;;;20.58;56.45;98434.40;106237;1279;138274;-76
2022/07/22 00:16:32;;;;;;;3.40;2.70;;;;;;;20.56;56.07;98435.48;106088;1278;25264;-76
2022/07/22 00:18:58;;;;;;;5.00;3.00;;;;;;;20.53;56.44;98453.65;106118;1277;138660;-76
2022/07/22 00:21:30;;;;;;;8.50;3.30;;;;;;;20.40;57.12;98462.97;106277;1278;23081;-76
2022/07/22 00:23:56;;;;;;;4.90;2.70;;;;;;;20.17;57.46;98463.70;106017;1277;25330;-76
2022/07/22 00:26:25;;;;;;;5.90;3.00;;;;;;;19.98;58.12;98456.96;105803;1278;137537;-77
2022/07/22 00:28:57;;;;;;;4.30;3.20;;;;;;;19.81;58.51;98447.80;105866;1278;22550;-76
2022/07/22 00:31:24;;;;;;;4.80;3.00;;;;;;;19.69;58.92;98444.79;106107;1278;137428;-76
2022/07/22 00:33:50;;;;;;;7.00;3.20;;;;;;;19.60;59.19;98443.95;106208;1277;24376;-76
2022/07/22 00:36:21;;;;;;;5.50;3.10;;;;;;;19.54;59.43;98445.84;105965;1281;22678;-76
2022/07/22 00:38:47;;;;;;;6.00;3.00;;;;;;;19.49;59.27;98445.80;105900;1276;137450;-76
2022/07/22 00:41:17;;;;;;;5.70;2.90;;;;;;;19.47;59.16;98443.64;105854;1281;22566;-76
2022/07/22 00:44:00;;;;;;;5.30;3.20;;;;;;;19.43;59.47;98442.59;105894;1281;137469;-76
2022/07/22 00:46:29;;;;;;;8.20;3.30;;;;;;;19.41;59.85;98446.35;105815;1281;22583;-76
2022/07/22 00:48:56;;;;;;;6.10;3.00;;;;;;;19.37;59.64;98442.11;105723;1281;137682;-76
2022/07/22 00:51:24;;;;;;;3.30;3.00;;;;;;;19.38;59.65;98441.60;106179;1277;22735;-76
2022/07/22 00:53:51;;;;;;;5.70;3.00;;;;;;;19.33;60.00;98438.37;105947;1280;22701;-76
2022/07/22 00:56:22;;;;;;;4.50;3.10;;;;;;;19.32;60.33;98436.94;105932;1281;137852;-77
2022/07/22 00:58:50;;;;;;;6.90;3.20;;;;;;;19.30;60.48;98437.80;106251;1278;24265;-76
2022/07/22 01:01:17;;;;;;;8.90;3.40;;;;;;;19.29;60.65;98434.29;105818;1281;137681;-77
2022/07/22 01:03:47;;;;;;;4.40;3.10;;;;;;;19.30;60.52;98427.20;106184;1278;22575;-76
2022/07/22 01:06:14;;;;;;;6.00;3.30;;;;;;;19.31;60.25;98429.84;106187;1278;24354;-76
2022/07/22 01:08:41;;;;;;;5.70;2.90;;;;;;;19.32;60.19;98438.15;106137;1281;137441;-76
2022/07/22 01:11:13;;;;;;;3.40;2.90;;;;;;;19.35;60.18;98443.68;106289;1281;24441;-76
2022/07/22 01:13:40;;;;;;;4.50;2.80;;;;;;;19.38;60.13;98452.59;105707;1278;137338;-76
2022/07/22 01:16:11;;;;;;;3.30;3.00;;;;;;;19.34;60.41;98456.96;106158;1278;22717;-76
2022/07/22 01:18:38;;;;;;;6.00;3.20;;;;;;;19.28;60.66;98460.59;105879;1281;22616;-76
2022/07/22 01:21:07;;;;;;;4.40;3.10;;;;;;;19.23;60.92;98459.09;106062;1278;137583;-76
2022/07/22 01:23:36;;;;;;;6.40;3.10;;;;;;;19.18;61.30;98464.69;106263;1278;23113;-75
2022/07/22 01:26:04;;;;;;;5.60;3.00;;;;;;;19.13;61.42;98467.14;105965;1277;137592;-78
2022/07/22 01:28:32;;;;;;;7.50;3.40;;;;;;;19.09;61.45;98466.38;105775;1278;22640;-76
2022/07/22 01:31:00;;;;;;;5.20;3.00;;;;;;;19.07;61.73;98465.64;105811;1277;137564;-76
2022/07/22 01:33:26;;;;;;;5.30;3.20;;;;;;;19.04;61.74;98463.64;106348;1278;25087;-77
2022/07/22 01:35:53;;;;;;;4.60;3.30;;;;;;;19.02;61.70;98457.31;106161;1277;22580;-76
2022/07/22 01:38:25;;;;;;;4.80;3.30;;;;;;;18.99;61.72;98454.77;105860;1278;137599;-76
2022/07/22 01:40:52;;;;;;;4.70;3.20;;;;;;;18.93;61.84;98450.17;105973;1277;23371;-76
2022/07/22 01:43:33;;;;;;;4.50;3.20;;;;;;;18.86;62.05;98446.44;106702;1277;137629;-76
2022/07/22 01:46:00;;;;;;;4.80;3.40;;;;;;;18.77;62.35;98444.42;106200;1277;22643;-77
2022/07/22 01:48:29;;;;;;;4.50;3.20;;;;;;;18.73;62.51;98441.30;105847;1277;25350;-76
2022/07/22 01:50:56;;;;;;;5.00;3.30;;;;;;;18.70;62.47;98441.02;106088;1277;137877;-77
2022/07/22 01:53:25;;;;;;;6.50;3.00;;;;;;;18.69;62.76;98439.32;105818;1278;24262;-77
2022/07/22 01:55:52;;;;;;;6.50;3.30;;;;;;;18.70;62.91;98441.02;105697;1278;137389;-77
2022/07/22 01:58:20;;;;;;;5.00;3.10;;;;;;;18.70;62.71;98438.65;105917;1278;22576;-77
2022/07/22 02:00:50;;;;;;;4.70;3.10;;;;;;;18.68;62.69;98435.30;106169;1281;22858;-76
2022/07/22 02:03:32;;;;;;;6.10;3.30;;;;;;;18.69;62.81;98434.13;105771;1281;30404;-76
2022/07/22 02:06:00;;;;;;;7.10;3.70;;;;;;;18.71;62.86;98431.66;105891;1278;22634;-77
2022/07/22 02:08:27;;;;;;;6.00;3.60;;;;;;;18.74;62.94;98431.96;105947;1278;137050;-77
2022/07/22 02:11:26;;;;;;;4.40;3.10;;;;;;;18.77;62.93;98426.73;105927;1277;25031;-77
2022/07/22 02:13:58;;;;;;;7.20;3.80;;;;;;;18.80;63.07;98433.17;106143;1277;138136;-77
2022/07/22 02:16:26;;;;;;;6.90;3.40;;;;;;;18.86;62.95;98435.19;105836;1277;23306;-76
2022/07/22 02:18:53;;;;;;;5.30;3.70;;;;;;;18.87;63.18;98439.80;105769;1277;137321;-76
2022/07/22 02:21:23;;;;;;;4.30;3.40;;;;;;;18.81;63.15;98445.90;106217;1277;25389;-76
2022/07/22 02:23:52;;;;;;;7.20;3.50;;;;;;;18.66;63.13;98454.73;106550;1277;22566;-76
2022/07/22 02:26:19;;;;;;;5.40;3.50;;;;;;;18.55;63.46;98464.29;106104;1277;137261;-76
2022/07/22 02:28:48;;;;;;;8.00;3.50;;;;;;;18.45;63.76;98472.31;106303;1277;24211;-76
2022/07/22 02:31:14;;;;;;;6.00;3.30;;;;;;;18.35;64.04;98471.93;105853;1278;137821;-76
2022/07/22 02:33:41;;;;;;;6.20;3.50;;;;;;;18.27;64.24;98472.81;106354;1277;23251;-77
2022/07/22 02:36:08;;;;;;;4.40;3.90;;;;;;;18.20;64.38;98470.44;106019;1277;24274;-77
2022/07/22 02:38:35;;;;;;;8.70;3.70;;;;;;;18.14;64.67;98463.92;106304;1277;137700;-76
2022/07/22 02:41:02;;;;;;;7.00;3.60;;;;;;;18.11;65.03;98473.52;106734;1277;22740;-76
2022/07/22 02:43:28;;;;;;;6.30;3.40;;;;;;;18.09;65.25;98469.79;105842;1280;138348;-76
2022/07/22 02:45:55;;;;;;;7.80;3.80;;;;;;;18.09;65.40;98468.63;106205;1277;22643;-76
2022/07/22 02:48:21;;;;;;;5.40;3.50;;;;;;;18.09;65.39;98462.17;106182;1276;23266;-76
2022/07/22 02:50:48;;;;;;;7.90;3.40;;;;;;;18.09;65.46;98458.73;105959;1277;137316;-76
2022/07/22 02:53:19;;;;;;;5.10;3.30;;;;;;;18.07;65.76;98455.70;106471;1277;25536;-76
2022/07/22 02:55:45;;;;;;;6.30;3.80;;;;;;;18.06;65.63;98446.85;106090;1277;137875;-76
2022/07/22 02:58:11;;;;;;;8.30;3.80;;;;;;;18.05;65.71;98459.86;106227;1277;23163;-76
2022/07/22 03:00:40;;;;;;;4.50;3.30;;;;;;;18.09;65.67;98460.88;106427;1277;22548;-76
2022/07/22 03:03:06;;;;;;;9.00;4.10;;;;;;;18.13;65.80;98464.39;106317;1277;137797;-76
2022/07/22 03:05:33;;;;;;;6.60;4.40;;;;;;;18.17;66.02;98469.37;106148;1277;22549;-76
2022/07/22 03:08:29;;;;;;;8.90;4.10;;;;;;;18.19;66.00;98470.12;105843;1277;137502;-76
2022/07/22 03:10:59;;;;;;;5.50;3.80;;;;;;;18.19;65.82;98474.02;106251;1277;22573;-76
2022/07/22 03:13:25;;;;;;;6.20;4.00;;;;;;;18.17;65.77;98483.86;106632;1277;137703;-78
2022/07/22 03:15:52;;;;;;;7.60;3.90;;;;;;;18.15;65.85;98489.61;106353;1279;22707;-76
2022/07/22 03:18:19;;;;;;;5.20;3.50;;;;;;;18.12;66.07;98499.58;106242;1277;25330;-76
2022/07/22 03:20:46;;;;;;;8.20;3.80;;;;;;;18.10;66.14;98508.36;105721;1277;138058;-77
2022/07/22 03:23:12;;;;;;;7.00;3.80;;;;;;;18.09;66.29;98516.77;106165;1277;23174;-76
2022/07/22 03:25:39;;;;;;;6.40;3.90;;;;;;;18.08;66.46;98520.89;106110;1276;137704;-76
2022/07/22 03:28:09;;;;;;;9.00;4.40;;;;;;;18.06;66.60;98514.98;106790;1277;22544;-77
2022/07/22 03:30:36;;;;;;;7.80;4.90;;;;;;;18.07;66.78;98517.16;106214;1277;22574;-76
2022/07/22 03:33:03;;;;;;;11.70;5.10;;;;;;;18.07;66.79;98511.70;105986;1277;137333;-77
2022/07/22 03:35:31;;;;;;;6.90;4.10;;;;;;;18.08;66.73;98507.73;106208;1277;22701;-76
2022/07/22 03:38:02;;;;;;;6.90;4.70;;;;;;;18.10;66.85;98506.77;106052;1277;137090;-76
2022/07/22 03:40:28;;;;;;;10.20;5.30;;;;;;;18.13;67.02;98507.68;106219;1277;22714;-76
2022/07/22 03:42:55;;;;;;;7.60;4.50;;;;;;;18.16;67.05;98513.37;106348;1277;138813;-76
2022/07/22 03:45:21;;;;;;;6.80;4.50;;;;;;;18.20;67.03;98508.47;106169;1277;22541;-76
2022/07/22 03:48:03;;;;;;;9.60;5.20;;;;;;;18.25;67.14;98509.79;106085;1277;22706;-76
2022/07/22 03:50:35;;;;;;;10.50;6.10;;;;;;;18.29;67.58;98510.34;105961;1277;137554;-76
2022/07/22 03:53:01;;;;;;;8.80;5.90;;;;;;;18.34;68.06;98509.46;106154;1280;25464;-76
2022/07/22 03:55:28;;;;;;;10.10;5.30;;;;;;;18.37;67.99;98509.64;106074;1277;137976;-78
2022/07/22 03:57:55;;;;;;;9.70;6.70;;;;;;;18.38;68.06;98512.61;106258;1277;22585;-77
2022/07/22 04:00:31;;;;;;;10.60;6.10;;;;;;;18.40;68.25;98510.86;106254;1277;22587;-77
2022/07/22 04:03:01;;;;;;;15.40;6.10;;;;;;;18.46;68.27;98509.20;106252;1277;138238;-77
2022/07/22 04:05:50;;;;;;;20.00;6.80;;;;;;;18.54;68.46;98514.33;105741;1277;22569;-77
2022/07/22 04:08:24;;;;;;;23.00;6.80;;;;;;;18.62;68.40;98521.00;106070;1277;138864;-77
2022/07/22 04:10:52;;;;;;;24.50;6.90;;;;;;;18.68;68.46;98524.63;105672;1277;22817;-76
2022/07/22 04:13:18;;;;;;;30.60;8.10;;;;;;;18.74;68.41;98524.42;105906;1279;138225;-78
2022/07/22 04:15:49;;;;;;;13.40;6.60;;;;;;;18.80;68.56;98525.13;105803;1280;22578;-77
2022/07/22 04:18:17;;;;;;;15.50;6.80;;;;;;;18.85;68.70;98526.40;105945;1278;22563;-77
2022/07/22 04:20:46;;;;;;;23.50;7.60;;;;;;;18.90;68.81;98531.30;106413;1277;138430;-78
2022/07/22 04:23:22;;;;;;;22.00;7.40;;;;;;;18.94;68.98;98530.18;106178;1275;25423;-78
2022/07/22 04:25:54;;;;;;;25.00;7.70;;;;;;;18.99;69.18;98530.56;106022;1278;139290;-78
2022/07/22 04:28:21;;;;;;;18.80;7.60;;;;;;;19.03;69.67;98531.45;106225;1278;22718;-78
2022/07/22 04:30:47;;;;;;;18.30;7.90;;;;;;;19.08;69.83;98534.28;106092;1277;22577;-78
2022/07/22 04:33:14;;;;;;;14.30;8.20;;;;;;;19.16;70.00;98534.51;106083;1277;137269;-77
2022/07/22 04:35:41;;;;;;;26.50;9.10;;;;;;;19.22;70.16;98529.95;106428;1277;25423;-78
2022/07/22 04:38:16;;;;;;;21.30;8.80;;;;;;;19.29;70.30;98531.59;106115;1277;138567;-78
2022/07/22 04:40:52;;;;;;;24.60;8.20;;;;;;;19.36;70.42;98533.52;107021;1277;22597;-77
2022/07/22 04:43:18;;;;;;;26.60;8.80;;;;;;;19.43;70.43;98529.92;106543;1277;137814;-79
2022/07/22 04:45:49;;;;;;;23.70;9.40;;;;;;;19.51;70.58;98533.55;106272;1277;26729;-77
2022/07/22 04:48:18;;;;;;;29.90;9.40;;;;;;;19.58;70.57;98534.11;106310;1277;22562;-78
2022/07/22 04:50:45;;;;;;;21.60;9.60;;;;;;;19.66;70.75;98534.36;106143;1278;137637;-77
2022/07/22 04:53:16;;;;;;;39.00;9.10;;;;;;;19.75;70.63;98532.61;106046;1277;25251;-76
2022/07/22 04:55:43;;;;;;;23.90;9.70;;;;;;;19.84;70.45;98526.15;106279;1277;138166;-77
2022/07/22 04:58:09;;;;;;;21.00;9.50;;;;;;;19.95;70.42;98526.52;106201;1277;24267;-78
2022/07/22 05:00:38;;;;;;;18.30;8.80;;;;;;;20.03;70.52;98525.30;106301;1277;22596;-77
2022/07/22 05:03:04;;;;;;;18.30;8.70;;;;;;;20.14;70.29;98529.36;106559;1277;137589;-78
2022/07/22 05:05:46;;;;;;;18.30;9.60;;;;;;;20.23;70.23;98527.95;106596;1277;23244;-77
2022/07/22 05:08:12;;;;;;;31.60;9.40;;;;;;;20.32;70.31;98533.36;106351;1277;138147;-78
2022/07/22 05:10:54;;;;;;;19.90;9.30;;;;;;;20.43;70.18;98529.33;106069;1277;23244;-78
2022/07/22 05:13:20;;;;;;;19.90;9.20;;;;;;;20.51;69.88;98527.23;105935;1277;138801;-77
2022/07/22 05:15:50;;;;;;;20.30;9.00;;;;;;;20.59;69.86;98524.81;106102;1277;24238;-77
2022/07/22 05:18:31;;;;;;;12.70;8.70;;;;;;;20.70;69.69;98522.12;105800;1279;22585;-76
2022/07/22 05:20:57;;;;;;;19.70;8.80;;;;;;;20.75;69.34;98522.48;105971;1278;137478;-78
2022/07/22 05:23:38;;;;;;;18.60;9.10;;;;;;;20.80;69.15;98521.59;106340;1277;25270;-77
2022/07/22 05:26:07;;;;;;;16.40;8.40;;;;;;;20.87;69.23;98521.52;106113;1277;138032;-76
2022/07/22 05:28:36;;;;;;;13.60;8.70;;;;;;;20.96;68.84;98524.61;106455;1277;22802;-78
2022/07/22 05:31:02;;;;;;;18.10;9.40;;;;;;;21.04;68.57;98525.81;106411;1277;137443;-78
2022/07/22 05:33:29;;;;;;;19.00;9.50;;;;;;;21.13;68.35;98519.29;106282;1277;25321;-76
2022/07/22 05:35:59;;;;;;;21.80;10.30;;;;;;;21.24;67.86;98522.23;106813;1277;22574;-78
2022/07/22 05:38:34;;;;;;;19.90;9.60;;;;;;;21.34;67.49;98524.27;106173;1277;137945;-77
2022/07/22 05:41:01;;;;;;;25.20;11.20;;;;;;;21.47;67.58;98526.70;106631;1276;23205;-77
2022/07/22 05:43:31;;;;;;;22.70;9.20;;;;;;;21.59;66.96;98529.23;106205;1277;137704;-76
2022/07/22 05:46:01;;;;;;;19.30;9.20;;;;;;;21.70;66.48;98530.44;106342;1277;23156;-77
2022/07/22 05:48:28;;;;;;;15.10;10.20;;;;;;;21.81;66.17;98527.50;106287;1277;25438;-77
2022/07/22 05:50:54;;;;;;;16.40;9.60;;;;;;;21.92;65.65;98529.72;106192;1277;137916;-77
2022/07/22 05:53:21;;;;;;;16.70;10.80;;;;;;;22.02;65.40;98534.92;106264;1277;25255;-78
2022/07/22 05:55:47;;;;;;;15.90;9.80;;;;;;;22.10;64.71;98535.41;106159;1276;138611;-76
2022/07/22 05:58:13;;;;;;;24.10;9.70;;;;;;;22.15;64.69;98539.89;105958;1277;24211;-76
2022/07/22 06:00:41;;;;;;;23.50;9.50;;;;;;;22.20;64.41;98543.88;106917;1277;22593;-76
2022/07/22 06:03:08;;;;;;;22.70;10.20;;;;;;;22.22;64.14;98537.58;106363;1278;137842;-76
2022/07/22 06:05:37;;;;;;;18.20;10.50;;;;;;;22.25;63.81;98537.70;105976;1278;22715;-75
2022/07/22 06:08:06;;;;;;;23.90;10.00;;;;;;;22.26;63.70;98538.39;106073;1277;137715;-75
2022/07/22 06:10:42;;;;;;;16.90;9.90;;;;;;;22.27;63.59;98537.53;106220;1277;25275;-75
2022/07/22 06:13:09;;;;;;;18.40;9.90;;;;;;;22.30;63.58;98533.86;106253;1277;138195;-75
2022/07/22 06:15:35;;;;;;;20.50;10.30;;;;;;;22.36;63.57;98531.56;106803;1277;22580;-76
2022/07/22 06:18:02;;;;;;;20.60;11.10;;;;;;;22.41;63.29;98529.65;106207;1277;24417;-75
2022/07/22 06:20:29;;;;;;;16.40;10.20;;;;;;;22.47;63.10;98528.77;105883;1276;137668;-76
2022/07/22 06:22:55;;;;;;;16.70;10.60;;;;;;;22.51;62.85;98529.42;106061;1277;23929;-76
2022/07/22 06:25:23;;;;;;;16.90;9.60;;;;;;;22.53;62.84;98530.63;106201;1277;140965;-76
2022/07/22 06:27:49;;;;;;;15.80;9.50;;;;;;;22.57;62.94;98536.80;106317;1277;25392;-76
2022/07/22 06:30:16;;;;;;;13.90;9.70;;;;;;;22.62;62.58;98534.39;106102;1278;22568;-76
2022/07/22 06:32:42;;;;;;;20.50;10.50;;;;;;;22.67;62.54;98537.17;106151;1277;137424;-76
2022/07/22 06:35:09;;;;;;;17.20;10.00;;;;;;;22.73;62.39;98538.33;106137;1277;22574;-76
2022/07/22 06:37:36;;;;;;;16.90;9.50;;;;;;;22.77;62.39;98532.23;106309;1277;137733;-77
2022/07/22 06:40:04;;;;;;;14.00;9.20;;;;;;;22.81;62.23;98530.92;105686;1278;25366;-76
2022/07/22 06:42:56;;;;;;;19.10;9.50;;;;;;;22.86;62.10;98528.25;105769;1278;137679;-75
2022/07/22 06:45:33;;;;;;;16.70;9.90;;;;;;;22.91;61.97;98524.40;105904;1277;22628;-76
2022/07/22 06:48:19;;;;;;;13.20;9.40;;;;;;;22.99;62.07;98525.48;106044;1277;23139;-76
2022/07/22 06:50:46;;;;;;;21.10;10.50;;;;;;;23.05;61.86;98524.93;105999;1277;137263;-77
2022/07/22 06:53:15;;;;;;;22.90;10.20;;;;;;;23.10;61.86;98521.73;106381;1277;24348;-76
2022/07/22 06:55:42;;;;;;;16.90;9.70;;;;;;;23.15;61.77;98518.52;106288;1277;138016;-76
2022/07/22 06:58:11;;;;;;;16.20;9.70;;;;;;;23.20;61.50;98517.20;106467;1277;22603;-77
2022/07/22 07:00:38;;;;;;;18.60;9.50;;;;;;;23.24;61.28;98518.83;106371;1276;24227;-77
2022/07/22 07:03:19;;;;;;;15.70;9.30;;;;;;;23.28;61.24;98521.80;106190;1277;22597;-75
2022/07/22 07:05:45;;;;;;;17.80;9.90;;;;;;;23.36;61.38;98524.60;106663;1276;25367;-77
2022/07/22 07:08:12;;;;;;;18.00;10.70;;;;;;;23.43;61.14;98526.98;106283;1277;137823;-77
2022/07/22 07:10:39;;;;;;;16.10;10.80;;;;;;;23.50;60.70;98527.98;106278;1277;22573;-77
2022/07/22 07:13:10;;;;;;;21.70;9.60;;;;;;;23.59;60.84;98531.80;106218;1277;138974;-77
2022/07/22 07:15:58;;;;;;;15.80;8.90;;;;;;;23.73;60.74;98534.33;106338;1277;27568;-77
2022/07/22 07:18:28;;;;;;;12.90;9.70;;;;;;;23.87;60.66;98533.52;106395;1277;22559;-76
2022/07/22 07:20:58;;;;;;;15.50;9.40;;;;;;;23.97;59.71;98535.87;105870;1277;138011;-76
2022/07/22 07:23:25;;;;;;;21.10;10.30;;;;;;;24.04;59.12;98530.94;106197;1277;26548;-75
2022/07/22 07:25:52;;;;;;;20.20;9.40;;;;;;;24.13;59.58;98528.10;106147;1277;138227;-75
2022/07/22 07:28:27;;;;;;;19.70;10.50;;;;;;;24.21;59.33;98520.66;106320;1277;22562;-75
2022/07/22 07:31:23;;;;;;;17.50;9.90;;;;;;;24.35;58.81;98516.46;106154;1277;137916;-75
2022/07/22 07:33:51;;;;;;;16.00;10.20;;;;;;;24.52;58.02;98514.04;106525;1277;22709;-77
2022/07/22 07:36:18;;;;;;;11.80;9.80;;;;;;;24.68;57.21;98507.05;106330;1277;22587;-76
2022/07/22 07:38:48;;;;;;;17.50;10.60;;;;;;;24.83;56.62;98502.98;106161;1278;138049;-76
2022/07/22 07:41:17;;;;;;;14.30;10.00;;;;;;;25.00;56.12;98513.71;106647;1277;22544;-76
2022/07/22 07:43:44;;;;;;;16.70;9.50;;;;;;;25.15;55.75;98518.05;106179;1278;137636;-76
2022/07/22 07:46:26;;;;;;;15.80;9.90;;;;;;;25.39;55.14;98517.25;105861;1279;23712;-76
2022/07/22 07:48:52;;;;;;;25.70;10.60;;;;;;;25.55;54.80;98519.04;105952;1280;160368;-76
2022/07/22 07:51:19;;;;;;;17.60;10.10;;;;;;;25.69;54.93;98531.59;106446;1280;24397;-76
2022/07/22 07:53:50;;;;;;;21.60;9.80;;;;;;;25.78;54.58;98530.11;106137;1280;25258;-76
2022/07/22 07:56:20;;;;;;;15.20;9.80;;;;;;;25.87;54.51;98524.54;106339;1280;137252;-75
2022/07/22 07:58:47;;;;;;;17.30;10.10;;;;;;;25.96;54.17;98526.63;106238;1279;24266;-77
2022/07/22 08:01:13;;;;;;;12.60;10.30;;;;;;;26.10;54.10;98534.94;106086;1280;137636;-77
2022/07/22 08:03:40;;;;;;;18.10;10.10;;;;;;;26.25;53.45;98535.23;106387;1280;22574;-77
2022/07/22 08:06:07;;;;;;;13.60;9.90;;;;;;;26.39;53.19;98531.61;105885;1280;22553;-77
2022/07/22 08:08:39;;;;;;;17.90;9.70;;;;;;;26.52;53.24;98529.39;106486;1277;137481;-76
2022/07/22 08:11:13;;;;;;;;;;;;;;;26.65;53.29;98535.58;106224;1280;31903;-76
2022/07/22 08:13:57;;;;;;;14.10;10.60;;;;;;;26.68;52.91;98535.77;106332;1277;123815;-76
2022/07/22 08:16:39;;;;;;;15.60;10.10;;;;;;;26.72;53.07;98539.56;106422;1277;22556;-76
2022/07/22 08:19:06;;;;;;;12.90;9.60;;;;;;;26.69;52.39;98539.54;106013;1277;138306;-76
2022/07/22 08:21:33;;;;;;;14.00;10.80;;;;;;;26.60;52.47;98541.68;106190;1277;24262;-79
2022/07/22 08:24:12;;;;;;;15.60;10.20;;;;;;;26.54;52.70;98548.92;105935;1278;24443;-77
2022/07/22 08:26:38;;;;;;;15.70;10.30;;;;;;;26.49;52.99;98544.45;106657;1277;137687;-77
2022/07/22 08:30:05;;;;;;;14.60;9.80;;;;;;;26.48;53.26;98546.20;107170;1277;23445;-76
2022/07/22 08:32:34;;;;;;;15.40;10.60;;;;;;;26.45;53.27;98549.59;106378;1280;137421;-81
2022/07/22 08:35:01;;;;;;;13.20;10.70;;;;;;;26.39;53.54;98551.45;106610;1277;24239;-80
2022/07/22 08:37:28;;;;;;;14.50;10.30;;;;;;;26.32;53.46;98557.55;106214;1280;137911;-79
2022/07/22 08:40:10;;;;;;;19.60;11.00;;;;;;;26.25;53.66;98556.34;106100;1278;25325;-79
2022/07/22 08:42:39;;;;;;;21.20;10.60;;;;;;;26.17;53.75;98548.80;106446;1278;25372;-79
2022/07/22 08:45:07;;;;;;;17.60;10.70;;;;;;;26.09;53.88;98546.22;106318;1280;137488;-81
2022/07/22 08:47:35;;;;;;;17.20;10.40;;;;;;;26.04;54.57;98546.15;106279;1277;23290;-81
2022/07/22 08:51:01;;;;;;;17.40;10.60;;;;;;;26.12;54.88;98551.11;106353;1277;137748;-81
2022/07/22 08:53:57;;;;;;;17.30;11.40;;;;;;;26.20;54.22;98544.22;107056;1277;32211;-82
2022/07/22 08:56:23;;;;;;;15.00;9.90;;;;;;;26.26;54.37;98546.42;106299;1277;137583;-80
2022/07/22 08:58:50;;;;;;;14.40;10.40;;;;;;;26.33;54.11;98550.95;106697;1280;22570;-81
2022/07/22 09:01:30;;;;;;;14.70;10.40;;;;;;;26.44;54.01;98555.32;106545;1278;137533;-81
2022/07/22 09:04:02;;;;;;;25.60;10.90;;;;;;;26.58;54.18;98552.80;106738;1279;22690;-80
2022/07/22 09:06:35;;;;;;;20.10;11.60;;;;;;;26.79;54.30;98548.08;106602;1277;22638;-79
2022/07/22 09:09:12;;;;;;;13.30;10.40;;;;;;;27.05;54.65;98554.63;106885;1277;137705;-79
2022/07/22 09:12:09;;;;;;;18.90;10.60;;;;;;;27.29;53.82;98550.50;106863;1279;25491;-80
2022/07/22 09:15:07;;;;;;;15.90;10.50;;;;;;;27.54;52.87;98552.51;106432;1279;138006;-81
2022/07/22 09:17:56;;;;;;;16.20;10.90;;;;;;;27.89;52.30;98552.67;107306;1280;22694;-74
2022/07/22 09:20:36;;;;;;;15.90;10.90;;;;;;;28.21;51.30;98548.02;106736;1277;137614;-75
2022/07/22 09:23:22;;;;;;;16.90;11.60;;;;;;;28.45;50.49;98549.34;107431;1277;25472;-76
2022/07/22 09:25:50;;;;;;;15.70;11.40;;;;;;;28.62;49.69;98551.21;106476;1279;137852;-74
2022/07/22 09:28:55;;;;;;;16.40;11.30;;;;;;;28.87;49.40;98548.30;106537;1277;22721;-74
2022/07/22 09:31:31;;;;;;;13.60;11.00;;;;;;;29.15;48.97;98544.06;106313;1277;137577;-74
2022/07/22 09:34:06;;;;;;;13.50;10.70;;;;;;;29.39;48.35;98545.70;106072;1277;22547;-74
2022/07/22 09:36:55;;;;;;;16.00;10.80;;;;;;;29.60;48.03;98544.44;106368;1277;22570;-74
2022/07/22 09:39:29;;;;;;;16.40;11.60;;;;;;;29.73;47.49;98548.63;106606;1277;24519;-74
2022/07/22 09:42:06;;;;;;;16.60;11.20;;;;;;;29.79;46.96;98545.72;105974;1279;25369;-74
2022/07/22 09:44:34;;;;;;;14.70;11.40;;;;;;;29.87;46.84;98549.41;106070;1279;138365;-74
2022/07/22 09:47:27;;;;;;;16.10;11.60;;;;;;;29.82;46.63;98555.81;106181;1280;25438;-75
2022/07/22 09:50:33;;;;;;;14.00;10.90;;;;;;;29.75;46.61;98553.58;105725;1279;137595;-75
2022/07/22 09:53:50;;;;;;;12.70;11.20;;;;;;;29.57;46.81;98551.86;106158;1280;22564;-76
2022/07/22 09:56:50;;;;;;;15.60;11.60;;;;;;;29.49;47.48;98551.20;106355;1278;137855;-76
2022/07/22 09:59:18;;;;;;;15.30;11.60;;;;;;;29.52;48.05;98558.55;106400;1277;22715;-75
2022/07/22 10:02:03;;;;;;;15.20;11.30;;;;;;;29.62;48.10;98556.04;105797;1277;137605;-74
2022/07/22 10:04:33;;;;;;;17.20;11.70;;;;;;;29.70;48.07;98551.30;106151;1279;22581;-74
2022/07/22 10:07:18;;;;;;;18.40;11.50;;;;;;;29.78;47.70;98549.89;105811;1279;137908;-73
2022/07/22 10:09:46;;;;;;;;;;;;;;;29.75;47.01;98549.01;106045;1280;24309;-74
2022/07/22 10:12:15;;;;;;;18.90;12.00;;;;;;;29.71;46.97;98548.43;106252;1281;25332;-74
2022/07/22 10:14:45;;;;;;;20.00;11.90;;;;;;;29.67;46.74;98547.71;105623;1279;137689;-74
2022/07/22 10:17:16;;;;;;;16.80;11.90;;;;;;;29.56;47.23;98547.73;106123;1280;22675;-74
2022/07/22 10:20:01;;;;;;;16.90;11.90;;;;;;;29.49;47.43;98548.07;106378;1279;137728;-74
2022/07/22 10:22:43;;;;;;;17.00;12.40;;;;;;;29.46;47.69;98545.45;105919;1278;22544;-74
2022/07/22 10:25:13;;;;;;;18.80;12.20;;;;;;;29.45;47.62;98544.07;105797;1277;138210;-74
2022/07/22 10:27:53;;;;;;;15.80;12.30;;;;;;;29.51;47.70;98546.59;106511;1280;25278;-74
2022/07/22 10:30:31;;;;;;;15.20;12.10;;;;;;;29.54;47.67;98540.95;106061;1280;22857;-74
2022/07/22 10:33:12;;;;;;;16.60;11.80;;;;;;;29.56;48.04;98539.23;105774;1277;137467;-75
2022/07/22 10:35:57;;;;;;;17.70;12.20;;;;;;;29.76;48.66;98538.45;106166;1277;24489;-76
2022/07/22 10:38:26;;;;;;;14.00;11.30;;;;;;;30.02;48.21;98536.99;106104;1277;137743;-74
2022/07/22 10:40:57;;;;;;;16.20;11.50;;;;;;;30.18;47.63;98534.08;106896;1279;25474;-75
2022/07/22 10:43:29;;;;;;;21.10;12.30;;;;;;;30.24;47.31;98530.02;106182;1278;137590;-76
2022/07/22 10:46:02;;;;;;;19.60;11.90;;;;;;;30.28;46.98;98532.25;106649;1277;22746;-75
2022/07/22 10:48:47;;;;;;;16.90;11.90;;;;;;;30.36;47.21;98527.66;106431;1279;30877;-75
2022/07/22 10:51:16;;;;;;;20.40;12.30;;;;;;;30.48;47.17;98534.52;106008;1279;137751;-75
2022/07/22 10:53:54;;;;;;;18.10;12.10;;;;;;;30.55;46.87;98531.77;106105;1280;22557;-75
2022/07/22 10:56:38;;;;;;;14.70;11.50;;;;;;;30.82;47.14;98529.92;105988;1280;137899;-76
2022/07/22 10:59:10;;;;;;;14.20;12.00;;;;;;;31.05;46.29;98528.18;106696;1277;22616;-85
2022/07/22 11:01:42;;;;;;;14.50;11.50;;;;;;;31.24;46.55;98525.38;105801;1279;138244;-81
2022/07/22 11:04:10;;;;;;;15.60;12.70;;;;;;;31.38;46.08;98525.65;106021;1279;22601;-81
2022/07/22 11:06:37;;;;;;;17.80;12.60;;;;;;;31.62;44.94;98521.95;105992;1281;25508;-84
2022/07/22 11:09:07;;;;;;;23.30;12.50;;;;;;;31.84;43.83;98520.80;106149;1277;138333;-83
2022/07/22 11:11:50;;;;;;;21.10;12.40;;;;;;;32.03;43.81;98517.88;106455;1277;22708;-80
2022/07/22 11:14:31;;;;;;;15.10;12.90;;;;;;;32.11;42.63;98524.65;106659;1277;138009;-80
2022/07/22 11:17:15;;;;;;;16.00;11.60;;;;;;;32.01;42.53;98521.39;106138;1279;23269;-81
2022/07/22 11:19:44;;;;;;;17.70;12.20;;;;;;;32.02;42.38;98514.31;105977;1277;137912;-80
2022/07/22 11:22:15;;;;;;;20.00;12.00;;;;;;;32.14;42.62;98509.87;106111;1280;24467;-82
2022/07/22 11:24:42;;;;;;;18.70;11.60;;;;;;;32.34;42.34;98506.73;106382;1278;22733;-82
2022/07/22 11:27:17;;;;;;;15.10;11.70;;;;;;;32.55;41.31;98505.38;106228;1279;137510;-80
2022/07/22 11:29:48;;;;;;;14.90;11.80;;;;;;;32.68;40.75;98507.42;106446;1277;30308;-81
2022/07/22 11:32:15;;;;;;;15.70;11.60;;;;;;;32.63;40.22;98509.41;106046;1277;137872;-80
2022/07/22 11:34:47;;;;;;;20.10;12.00;;;;;;;32.74;40.55;98510.77;106498;1280;23098;-81
2022/07/22 11:37:28;;;;;;;15.20;11.40;;;;;;;32.90;39.66;98512.56;106223;1277;138329;-81